createdAt,value
2022-10-25T00:01:48.960Z,97.31
2022-10-25T00:04:22.584Z,96.88
2022-10-25T00:06:52.787Z,96.60
2022-10-25T00:09:20.322Z,96.60
2022-10-25T00:12:07.376Z,96.84
2022-10-25T00:14:36.070Z,97.04
2022-10-25T00:17:06.753Z,96.63
2022-10-25T00:19:34.166Z,96.55
2022-10-25T00:22:01.787Z,97.57
2022-10-25T00:24:29.282Z,96.95
2022-10-25T00:26:56.949Z,96.84
2022-10-25T00:31:57.396Z,97.42
2022-10-25T00:34:24.957Z,96.89
2022-10-25T00:36:52.474Z,97.38
2022-10-25T00:39:20.082Z,97.39
2022-10-25T00:41:48.201Z,98.83
2022-10-25T00:44:41.071Z,98.08
2022-10-25T00:47:27.357Z,97.60
2022-10-25T00:50:11.060Z,97.49
2022-10-25T00:52:42.908Z,98.43
2022-10-25T00:55:12.211Z,97.51
2022-10-25T00:57:45.948Z,97.62
2022-10-25T01:00:13.966Z,97.07
2022-10-25T01:02:41.642Z,97.24
2022-10-25T01:05:10.008Z,97.26
2022-10-25T01:07:38.745Z,97.23
2022-10-25T01:10:07.161Z,97.10
2022-10-25T01:12:34.719Z,98.49
2022-10-25T01:15:06.770Z,98.58
2022-10-25T01:17:41.952Z,98.34
2022-10-25T01:20:30.739Z,97.79
2022-10-25T01:23:29.904Z,99.19
2022-10-25T01:26:50.086Z,98.82
2022-10-25T01:29:35.390Z,99.22
2022-10-25T01:32:17.300Z,99.38
2022-10-25T01:35:01.877Z,99.12
2022-10-25T01:37:48.513Z,98.99
2022-10-25T01:40:27.569Z,99.33
2022-10-25T01:43:10.059Z,98.45
2022-10-25T01:45:47.863Z,97.85
2022-10-25T01:48:21.498Z,97.98
2022-10-25T01:50:49.298Z,98.38
2022-10-25T01:53:16.905Z,98.98
2022-10-25T01:55:57.676Z,99.31
2022-10-25T01:59:02.357Z,99.47
2022-10-25T02:01:40.941Z,99.86
2022-10-25T02:04:18.929Z,99.40
2022-10-25T02:07:11.586Z,98.50
2022-10-25T02:10:02.359Z,99.21
2022-10-25T02:12:49.201Z,99.76
2022-10-25T02:15:26.172Z,99.67
2022-10-25T02:18:04.793Z,99.55
2022-10-25T02:20:35.751Z,98.91
2022-10-25T02:23:06.016Z,98.85
2022-10-25T02:25:35.666Z,98.22
2022-10-25T02:28:07.684Z,98.34
2022-10-25T02:30:38.343Z,98.49
2022-10-25T02:33:06.024Z,98.96
2022-10-25T02:35:33.581Z,99.42
2022-10-25T02:38:01.572Z,99.96
2022-10-25T02:40:29.473Z,99.59
2022-10-25T02:42:56.996Z,100.00
2022-10-25T02:45:24.326Z,99.81
2022-10-25T02:47:51.830Z,99.26
2022-10-25T02:50:19.368Z,100.00
2022-10-25T02:52:46.833Z,98.89
2022-10-25T02:55:14.468Z,98.61
2022-10-25T02:57:41.892Z,98.38
2022-10-25T03:02:40.943Z,99.73
2022-10-25T03:05:08.951Z,99.42
2022-10-25T03:07:36.412Z,99.68
2022-10-25T03:10:04.065Z,100.00
2022-10-25T03:12:31.296Z,100.00
2022-10-25T03:14:58.615Z,100.00
2022-10-25T03:17:25.941Z,99.74
2022-10-25T03:19:53.421Z,99.17
2022-10-25T03:22:20.925Z,100.00
2022-10-25T03:24:48.163Z,100.00
2022-10-25T03:27:15.396Z,100.00
2022-10-25T03:29:42.553Z,100.00
2022-10-25T03:32:09.935Z,100.00
2022-10-25T03:34:37.270Z,100.00
2022-10-25T03:37:04.498Z,100.00
2022-10-25T03:39:31.736Z,100.00
2022-10-25T03:41:58.939Z,100.00
2022-10-25T03:44:26.287Z,100.00
2022-10-25T03:46:53.628Z,100.00
2022-10-25T03:49:21.339Z,100.00
2022-10-25T03:51:51.182Z,100.00
2022-10-25T03:54:23.361Z,100.00
2022-10-25T03:56:52.851Z,100.00
2022-10-25T03:59:20.737Z,100.00
2022-10-25T04:01:48.050Z,100.00
2022-10-25T04:04:15.687Z,100.00
2022-10-25T04:06:43.904Z,100.00
2022-10-25T04:09:11.872Z,100.00
2022-10-25T04:11:39.665Z,93.96
2022-10-25T04:14:07.944Z,90.03
2022-10-25T04:16:35.780Z,86.50
2022-10-25T04:19:04.090Z,85.63
2022-10-25T04:21:32.125Z,85.56
2022-10-25T04:24:03.401Z,83.26
2022-10-25T04:26:32.707Z,79.05
2022-10-25T04:29:01.147Z,81.85
2022-10-25T04:31:28.581Z,81.25
2022-10-25T04:33:56.551Z,80.22
2022-10-25T04:36:24.337Z,84.65
2022-10-25T04:38:53.049Z,90.73
2022-10-25T04:41:20.705Z,93.89
2022-10-25T04:43:50.292Z,95.77
2022-10-25T04:46:18.257Z,97.52
2022-10-25T04:48:46.021Z,97.97
2022-10-25T04:51:14.170Z,98.31
2022-10-25T04:53:41.845Z,98.44
2022-10-25T04:56:12.455Z,98.92
2022-10-25T04:58:40.879Z,99.22
2022-10-25T05:01:11.392Z,98.79
2022-10-25T05:03:39.517Z,99.96
2022-10-25T05:06:15.942Z,99.86
2022-10-25T05:08:47.912Z,99.94
2022-10-25T05:11:18.396Z,100.00
2022-10-25T05:13:46.376Z,100.00
2022-10-25T05:16:16.329Z,98.97
2022-10-25T05:18:43.829Z,99.56
2022-10-25T05:21:12.150Z,100.00
2022-10-25T05:23:39.374Z,100.00
2022-10-25T05:26:10.558Z,100.00
2022-10-25T05:28:39.740Z,100.00
2022-10-25T05:31:28.529Z,100.00
2022-10-25T05:33:58.558Z,100.00
2022-10-25T05:36:26.869Z,100.00
2022-10-25T05:38:54.268Z,100.00
2022-10-25T05:41:21.820Z,100.00
2022-10-25T05:43:49.166Z,99.52
2022-10-25T05:46:20.035Z,99.12
2022-10-25T05:48:49.128Z,99.13
2022-10-25T05:51:33.888Z,99.83
2022-10-25T05:54:10.624Z,99.95
2022-10-25T05:56:42.165Z,99.45
2022-10-25T05:59:11.931Z,99.67
2022-10-25T06:01:46.200Z,99.96
2022-10-25T06:04:15.001Z,99.88
2022-10-25T06:06:44.601Z,98.94
2022-10-25T06:09:13.409Z,97.77
2022-10-25T06:11:40.991Z,98.40
2022-10-25T06:14:10.271Z,98.56
2022-10-25T06:16:38.490Z,98.52
2022-10-25T06:19:06.762Z,98.77
2022-10-25T06:21:34.300Z,97.97
2022-10-25T06:24:02.404Z,98.96
2022-10-25T06:26:31.353Z,98.99
2022-10-25T06:29:01.505Z,99.39
2022-10-25T06:31:30.054Z,99.84
2022-10-25T06:34:00.176Z,99.35
2022-10-25T06:36:28.440Z,95.19
2022-10-25T06:38:55.819Z,96.26
2022-10-25T06:41:27.984Z,96.64
2022-10-25T06:43:55.953Z,96.59
2022-10-25T06:46:26.354Z,96.27
2022-10-25T06:48:55.870Z,96.58
2022-10-25T06:51:24.499Z,95.95
2022-10-25T06:53:57.356Z,96.34
2022-10-25T06:56:25.892Z,95.72
2022-10-25T06:58:54.029Z,95.73
2022-10-25T07:01:23.231Z,95.13
2022-10-25T07:03:52.766Z,94.81
2022-10-25T07:06:26.169Z,94.31
2022-10-25T07:08:58.200Z,94.16
2022-10-25T07:11:28.161Z,93.02
2022-10-25T07:13:56.946Z,92.35
2022-10-25T07:16:25.838Z,92.09
2022-10-25T07:18:58.495Z,92.45
2022-10-25T07:21:26.088Z,92.51
2022-10-25T07:23:54.061Z,92.85
2022-10-25T07:26:28.065Z,91.54
2022-10-25T07:28:57.480Z,87.20
2022-10-25T07:31:28.296Z,89.60
2022-10-25T07:33:59.012Z,91.26
2022-10-25T07:36:27.216Z,91.05
2022-10-25T07:38:55.003Z,91.12
2022-10-25T07:41:23.148Z,90.74
2022-10-25T07:43:50.702Z,89.71
2022-10-25T07:46:18.371Z,90.73
2022-10-25T07:48:45.782Z,91.21
2022-10-25T07:51:16.131Z,91.12
2022-10-25T07:53:43.743Z,90.54
2022-10-25T07:56:22.405Z,91.34
2022-10-25T07:58:52.575Z,87.91
2022-10-25T08:01:22.865Z,88.16
2022-10-25T08:03:52.076Z,87.65
2022-10-25T08:06:20.602Z,87.81
2022-10-25T08:08:48.077Z,87.34
2022-10-25T08:11:16.073Z,86.37
2022-10-25T08:13:43.540Z,86.51
2022-10-25T08:16:11.002Z,86.63
2022-10-25T08:18:38.512Z,86.37
2022-10-25T08:21:06.028Z,85.43
2022-10-25T08:23:33.731Z,85.80
2022-10-25T08:26:02.527Z,84.47
2022-10-25T08:28:30.833Z,84.18
2022-10-25T08:30:59.126Z,82.75
2022-10-25T08:33:26.555Z,83.53
2022-10-25T08:35:53.921Z,81.93
2022-10-25T08:38:21.242Z,81.72
2022-10-25T08:41:08.023Z,81.23
2022-10-25T08:46:58.067Z,79.04
2022-10-25T08:49:53.426Z,77.18
2022-10-25T08:52:27.480Z,78.53
2022-10-25T08:55:01.748Z,77.69
2022-10-25T08:57:39.646Z,76.74
2022-10-25T09:00:19.888Z,76.25
2022-10-25T09:02:56.204Z,72.35
2022-10-25T09:05:23.659Z,70.48
2022-10-25T09:08:06.689Z,70.38
2022-10-25T09:11:02.089Z,68.25
2022-10-25T09:13:48.069Z,68.16
2022-10-25T09:16:42.256Z,67.22
2022-10-25T09:19:16.903Z,67.63
2022-10-25T09:22:00.379Z,67.24
2022-10-25T09:24:35.964Z,66.93
2022-10-25T09:27:20.173Z,67.06
2022-10-25T09:29:53.430Z,67.01
2022-10-25T09:32:34.580Z,66.35
2022-10-25T09:35:03.014Z,66.76
2022-10-25T09:37:39.432Z,67.67
2022-10-25T09:40:13.880Z,66.42
2022-10-25T09:42:48.477Z,68.30
2022-10-25T09:45:19.264Z,67.99
2022-10-25T09:48:12.761Z,69.39
2022-10-25T09:50:50.649Z,67.99
2022-10-25T09:53:21.786Z,68.72
2022-10-25T09:56:00.247Z,68.17
2022-10-25T09:58:34.589Z,69.13
2022-10-25T10:01:06.404Z,68.43
2022-10-25T10:03:36.830Z,67.82
2022-10-25T10:06:16.366Z,68.50
2022-10-25T10:08:57.762Z,68.47
2022-10-25T10:11:26.584Z,68.58
2022-10-25T10:14:00.455Z,68.57
2022-10-25T10:16:32.407Z,67.59
2022-10-25T10:19:20.502Z,68.49
2022-10-25T10:22:02.911Z,66.77
2022-10-25T10:24:38.541Z,67.19
2022-10-25T10:27:08.851Z,66.96
2022-10-25T10:29:55.025Z,63.41
2022-10-25T10:32:34.519Z,61.88
2022-10-25T10:35:05.163Z,61.52
2022-10-25T10:37:35.713Z,62.33
2022-10-25T10:40:23.688Z,60.79
2022-10-25T10:42:51.619Z,59.89
2022-10-25T10:45:20.000Z,60.12
2022-10-25T10:47:50.296Z,60.72
2022-10-25T10:50:23.548Z,60.83
2022-10-25T10:53:02.260Z,61.69
2022-10-25T10:55:34.543Z,60.41
2022-10-25T10:58:06.187Z,60.24
2022-10-25T11:00:34.616Z,60.22
2022-10-25T11:03:02.153Z,62.48
2022-10-25T11:05:32.164Z,60.63
2022-10-25T11:08:17.152Z,60.04
2022-10-25T11:10:44.575Z,59.22
2022-10-25T11:13:18.784Z,59.22
2022-10-25T11:16:03.134Z,62.28
2022-10-25T11:18:39.509Z,58.01
2022-10-25T11:21:31.224Z,57.37
2022-10-25T11:24:10.796Z,57.69
2022-10-25T11:26:57.212Z,57.19
2022-10-25T11:30:24.276Z,55.86
2022-10-25T11:33:32.815Z,54.42
2022-10-25T11:36:20.305Z,55.55
2022-10-25T11:39:16.465Z,55.23
2022-10-25T11:41:52.098Z,56.04
2022-10-25T11:44:46.403Z,56.59
2022-10-25T11:47:39.927Z,56.17
2022-10-25T11:50:39.965Z,56.20
2022-10-25T11:53:22.873Z,55.36
2022-10-25T11:56:13.669Z,54.78
2022-10-25T11:59:11.597Z,59.54
2022-10-25T12:02:19.748Z,54.04
2022-10-25T12:05:30.512Z,54.02
2022-10-25T12:08:06.192Z,53.77
2022-10-25T12:10:54.625Z,54.27
2022-10-25T12:13:43.372Z,54.73
2022-10-25T12:16:15.132Z,53.49
2022-10-25T12:19:04.987Z,53.93
2022-10-25T12:21:42.992Z,53.73
2022-10-25T12:24:42.912Z,53.12
2022-10-25T12:27:15.280Z,53.01
2022-10-25T12:29:48.146Z,53.19
2022-10-25T12:32:20.984Z,53.15
2022-10-25T12:34:54.231Z,53.81
2022-10-25T12:37:49.084Z,52.09
2022-10-25T12:40:21.554Z,52.53
2022-10-25T12:43:07.758Z,52.65
2022-10-25T12:45:57.457Z,52.29
2022-10-25T12:49:11.251Z,52.95
2022-10-25T12:52:01.346Z,53.52
2022-10-25T12:54:55.367Z,53.22
2022-10-25T12:57:38.298Z,52.93
2022-10-25T13:00:16.088Z,53.39
2022-10-25T13:03:18.532Z,53.77
2022-10-25T13:05:56.020Z,54.55
2022-10-25T13:08:27.978Z,54.15
2022-10-25T13:11:07.076Z,54.34
2022-10-25T13:13:38.021Z,54.32
2022-10-25T13:16:09.433Z,54.54
2022-10-25T13:18:47.880Z,54.04
2022-10-25T13:21:36.386Z,55.05
2022-10-25T13:24:03.956Z,54.61
2022-10-25T13:26:32.752Z,53.68
2022-10-25T13:29:24.434Z,53.83
2022-10-25T13:32:10.251Z,54.30
2022-10-25T13:34:40.032Z,54.51
2022-10-25T13:37:33.948Z,55.23
2022-10-25T13:40:05.984Z,55.72
2022-10-25T13:42:37.999Z,55.58
2022-10-25T13:45:08.110Z,55.78
2022-10-25T13:47:47.610Z,55.60
2022-10-25T13:53:12.135Z,55.50
2022-10-25T13:55:46.800Z,55.40
2022-10-25T13:58:32.091Z,55.38
2022-10-25T14:01:15.223Z,55.16
2022-10-25T14:04:02.020Z,56.27
2022-10-25T14:06:40.411Z,56.04
2022-10-25T14:09:29.577Z,55.89
2022-10-25T14:12:02.960Z,56.24
2022-10-25T14:14:36.029Z,56.31
2022-10-25T14:17:09.543Z,56.39
2022-10-25T14:19:45.551Z,56.28
2022-10-25T14:22:18.795Z,57.31
2022-10-25T14:24:50.291Z,57.12
2022-10-25T14:27:26.465Z,57.47
2022-10-25T14:29:53.867Z,57.39
2022-10-25T14:32:22.542Z,57.76
2022-10-25T14:34:53.357Z,58.88
2022-10-25T14:37:21.343Z,59.21
2022-10-25T14:39:52.725Z,59.57
2022-10-25T14:42:23.503Z,59.80
2022-10-25T14:44:53.766Z,59.92
2022-10-25T14:47:30.050Z,61.77
2022-10-25T14:50:01.687Z,60.14
2022-10-25T14:52:31.584Z,59.71
2022-10-25T14:55:06.075Z,59.63
2022-10-25T14:57:33.666Z,59.58
2022-10-25T15:00:06.889Z,63.50
2022-10-25T15:02:37.169Z,60.16
2022-10-25T15:05:19.694Z,60.44
2022-10-25T15:07:54.380Z,60.36
2022-10-25T15:10:37.315Z,60.44
2022-10-25T15:13:16.585Z,60.81
2022-10-25T15:18:39.910Z,61.13
2022-10-25T15:21:12.153Z,60.69
2022-10-25T15:24:03.963Z,60.94
2022-10-25T15:26:34.674Z,61.06
2022-10-25T15:29:05.866Z,61.07
2022-10-25T15:31:33.559Z,61.10
2022-10-25T15:34:05.838Z,61.40
2022-10-25T15:36:34.557Z,61.71
2022-10-25T15:39:18.023Z,62.15
2022-10-25T15:41:45.524Z,61.89
2022-10-25T15:44:13.110Z,62.67
2022-10-25T15:46:40.671Z,62.54
2022-10-25T15:49:12.901Z,62.73
2022-10-25T15:51:43.902Z,63.86
2022-10-25T15:54:24.982Z,62.94
2022-10-25T15:56:52.346Z,63.04
2022-10-25T15:59:19.953Z,65.12
2022-10-25T16:01:51.024Z,64.91
2022-10-25T16:04:19.962Z,64.43
2022-10-25T16:06:48.131Z,65.53
2022-10-25T16:09:15.718Z,64.75
2022-10-25T16:11:48.489Z,64.87
2022-10-25T16:14:23.447Z,64.93
2022-10-25T16:16:55.288Z,65.25
2022-10-25T16:19:22.983Z,65.30
2022-10-25T16:21:53.377Z,65.66
2022-10-25T16:24:21.289Z,65.38
2022-10-25T16:26:49.769Z,65.66
2022-10-25T16:29:19.946Z,65.98
2022-10-25T16:31:48.033Z,66.30
2022-10-25T16:34:16.274Z,67.62
2022-10-25T16:36:58.252Z,66.79
2022-10-25T16:39:25.843Z,67.37
2022-10-25T16:41:53.434Z,67.56
2022-10-25T16:44:23.997Z,67.25
2022-10-25T16:46:51.381Z,67.20
2022-10-25T16:49:18.835Z,67.58
2022-10-25T16:51:46.551Z,67.86
2022-10-25T16:54:18.719Z,68.16
2022-10-25T16:56:48.307Z,68.77
2022-10-25T16:59:16.166Z,68.77
2022-10-25T17:01:46.154Z,69.02
2022-10-25T17:04:17.508Z,70.78
2022-10-25T17:06:45.143Z,69.81
2022-10-25T17:09:12.801Z,70.38
2022-10-25T17:11:44.465Z,70.76
2022-10-25T17:14:12.859Z,70.17
2022-10-25T17:16:43.047Z,70.79
2022-10-25T17:19:16.916Z,70.95
2022-10-25T17:21:48.951Z,71.19
2022-10-25T17:24:16.592Z,72.02
2022-10-25T17:26:50.740Z,69.47
2022-10-25T17:29:20.161Z,69.38
2022-10-25T17:31:48.009Z,71.32
2022-10-25T17:34:27.195Z,71.81
2022-10-25T17:37:12.589Z,72.39
2022-10-25T17:39:51.234Z,73.00
2022-10-25T17:42:22.201Z,74.23
2022-10-25T17:44:53.339Z,74.58
2022-10-25T17:47:26.696Z,74.49
2022-10-25T17:50:13.504Z,74.45
2022-10-25T17:52:44.810Z,75.06
2022-10-25T17:55:13.031Z,74.92
2022-10-25T17:57:45.424Z,74.29
2022-10-25T18:00:16.789Z,74.29
2022-10-25T18:05:32.766Z,74.79
2022-10-25T18:08:02.740Z,75.03
2022-10-25T18:10:33.895Z,74.90
2022-10-25T18:13:02.284Z,74.91
2022-10-25T18:15:37.285Z,75.39
2022-10-25T18:18:05.715Z,74.39
2022-10-25T18:20:39.449Z,74.22
2022-10-25T18:23:12.398Z,75.17
2022-10-25T18:26:04.455Z,74.97
2022-10-25T18:28:36.177Z,74.44
2022-10-25T18:31:15.409Z,74.31
2022-10-25T18:33:46.305Z,74.32
2022-10-25T18:36:19.446Z,74.09
2022-10-25T18:38:53.471Z,74.26
2022-10-25T18:41:28.269Z,74.31
2022-10-25T18:44:05.925Z,74.75
2022-10-25T18:46:34.609Z,73.99
2022-10-25T18:49:05.586Z,73.85
2022-10-25T18:51:35.914Z,73.79
2022-10-25T18:54:06.429Z,74.20
2022-10-25T18:56:39.832Z,74.02
2022-10-25T18:59:17.194Z,74.19
2022-10-25T19:01:48.809Z,74.69
2022-10-25T19:04:16.853Z,75.83
2022-10-25T19:06:53.951Z,74.64
2022-10-25T19:09:31.107Z,74.55
2022-10-25T19:12:07.534Z,74.51
2022-10-25T19:14:35.183Z,74.69
2022-10-25T19:17:10.811Z,74.91
2022-10-25T19:19:38.931Z,75.95
2022-10-25T19:22:06.447Z,76.94
2022-10-25T19:24:39.686Z,75.49
2022-10-25T19:27:09.841Z,75.32
2022-10-25T19:29:38.187Z,75.62
2022-10-25T19:32:06.402Z,75.67
2022-10-25T19:34:34.185Z,75.92
2022-10-25T19:37:05.692Z,76.23
2022-10-25T19:39:36.651Z,77.24
2022-10-25T19:42:04.620Z,77.02
2022-10-25T19:44:34.941Z,77.17
2022-10-25T19:47:10.599Z,77.48
2022-10-25T19:49:44.578Z,78.21
2022-10-25T19:52:12.085Z,79.06
2022-10-25T19:54:43.643Z,79.27
2022-10-25T19:57:15.264Z,79.74
2022-10-25T19:59:42.839Z,80.01
2022-10-25T20:02:10.984Z,79.68
2022-10-25T20:04:41.156Z,80.86
2022-10-25T20:07:12.428Z,80.69
2022-10-25T20:09:40.210Z,81.41
2022-10-25T20:12:13.638Z,80.93
2022-10-25T20:14:41.275Z,81.34
2022-10-25T20:17:09.096Z,82.07
2022-10-25T20:19:39.931Z,82.86
2022-10-25T20:22:13.084Z,82.76
2022-10-25T20:24:42.860Z,82.37
2022-10-25T20:27:10.354Z,83.58
2022-10-25T20:29:37.796Z,83.45
2022-10-25T20:32:05.799Z,83.12
2022-10-25T20:34:33.335Z,83.92
2022-10-25T20:37:04.384Z,83.79
2022-10-25T20:39:31.935Z,86.22
2022-10-25T20:41:59.534Z,83.95
2022-10-25T20:44:27.199Z,86.12
2022-10-25T20:46:54.895Z,87.63
2022-10-25T20:49:22.378Z,85.43
2022-10-25T20:51:49.842Z,87.09
2022-10-25T20:54:17.165Z,85.91
2022-10-25T20:56:44.599Z,84.87
2022-10-25T20:59:12.114Z,85.80
2022-10-25T21:01:39.865Z,86.41
2022-10-25T21:04:09.691Z,86.17
2022-10-25T21:06:37.135Z,86.17
2022-10-25T21:09:04.855Z,86.40
2022-10-25T21:11:32.298Z,85.64
2022-10-25T21:13:59.723Z,85.03
2022-10-25T21:16:27.587Z,85.17
2022-10-25T21:19:09.536Z,87.00
2022-10-25T21:21:39.940Z,85.99
2022-10-25T21:24:09.865Z,85.40
2022-10-25T21:26:37.205Z,84.35
2022-10-25T21:29:07.025Z,84.90
2022-10-25T21:31:34.443Z,85.09
2022-10-25T21:34:02.201Z,85.25
2022-10-25T21:36:30.190Z,84.21
2022-10-25T21:38:57.698Z,85.39
2022-10-25T21:41:25.095Z,85.96
2022-10-25T21:43:54.004Z,85.80
2022-10-25T21:46:22.400Z,86.82
2022-10-25T21:48:50.001Z,86.70
2022-10-25T21:51:21.614Z,86.35
2022-10-25T21:53:49.312Z,87.35
2022-10-25T21:56:19.696Z,87.34
2022-10-25T21:58:48.211Z,87.91
2022-10-25T22:01:18.012Z,86.82
2022-10-25T22:03:45.670Z,87.52
2022-10-25T22:06:15.425Z,88.55
2022-10-25T22:08:43.606Z,88.91
2022-10-25T22:11:16.562Z,88.10
2022-10-25T22:13:44.486Z,90.80
2022-10-25T22:16:19.778Z,91.13
2022-10-25T22:18:53.187Z,91.71
2022-10-25T22:21:25.572Z,91.52
2022-10-25T22:23:53.226Z,92.47
2022-10-25T22:26:24.208Z,92.75
2022-10-25T22:28:57.382Z,92.04
2022-10-25T22:31:26.664Z,93.04
2022-10-25T22:34:05.749Z,91.25
2022-10-25T22:36:38.238Z,90.60
2022-10-25T22:39:09.967Z,89.91
2022-10-25T22:41:38.262Z,90.77
2022-10-25T22:44:11.287Z,90.08
2022-10-25T22:46:40.340Z,90.41
2022-10-25T22:49:09.070Z,90.03
2022-10-25T22:51:38.780Z,90.27
2022-10-25T22:54:12.844Z,91.43
2022-10-25T22:56:40.620Z,90.79
2022-10-25T22:59:08.274Z,91.02
2022-10-25T23:01:37.800Z,92.63
2022-10-25T23:04:10.376Z,92.71
2022-10-25T23:06:40.151Z,92.52
2022-10-25T23:09:10.049Z,93.21
2022-10-25T23:11:43.129Z,93.72
2022-10-25T23:14:16.676Z,94.02
2022-10-25T23:16:46.779Z,93.90
2022-10-25T23:19:15.253Z,95.38
2022-10-25T23:21:42.838Z,96.27
2022-10-25T23:24:10.614Z,96.91
2022-10-25T23:26:38.445Z,96.36
2022-10-25T23:29:06.140Z,97.21
2022-10-25T23:31:34.147Z,97.51
2022-10-25T23:34:01.723Z,95.90
2022-10-25T23:36:31.194Z,96.68
2022-10-25T23:38:58.696Z,96.19
2022-10-25T23:41:26.561Z,97.64
2022-10-25T23:43:54.524Z,98.60
2022-10-25T23:46:22.179Z,97.11
2022-10-25T23:48:49.837Z,97.15
2022-10-25T23:51:18.773Z,96.58
2022-10-25T23:53:51.922Z,96.25
2022-10-25T23:56:22.227Z,96.40
2022-10-25T23:58:49.896Z,95.55
